sensor_id;sensor_type;location;lat;lon;timestamp;P1;durP1;ratioP1;P2;durP2;ratioP2
37409;SDS011;23275;48.914;12.566;2023-07-13T00:00:29;12.50;;;6.30;;
37409;SDS011;23275;48.914;12.566;2023-07-13T00:02:57;8.98;;;6.10;;
37409;SDS011;23275;48.914;12.566;2023-07-13T00:05:22;9.93;;;6.32;;
37409;SDS011;23275;48.914;12.566;2023-07-13T00:07:49;8.35;;;5.88;;
37409;SDS011;23275;48.914;12.566;2023-07-13T00:10:15;10.43;;;6.13;;
37409;SDS011;23275;48.914;12.566;2023-07-13T00:12:41;10.52;;;6.22;;
37409;SDS011;23275;48.914;12.566;2023-07-13T00:15:09;11.23;;;6.20;;
37409;SDS011;23275;48.914;12.566;2023-07-13T00:17:41;12.10;;;6.75;;
37409;SDS011;23275;48.914;12.566;2023-07-13T00:20:09;10.63;;;5.50;;
37409;SDS011;23275;48.914;12.566;2023-07-13T00:22:35;9.30;;;5.85;;
37409;SDS011;23275;48.914;12.566;2023-07-13T00:25:01;8.02;;;5.97;;
37409;SDS011;23275;48.914;12.566;2023-07-13T00:27:27;9.02;;;5.78;;
37409;SDS011;23275;48.914;12.566;2023-07-13T00:29:54;10.50;;;6.43;;
37409;SDS011;23275;48.914;12.566;2023-07-13T00:32:20;11.45;;;7.20;;
37409;SDS011;23275;48.914;12.566;2023-07-13T00:34:46;18.38;;;7.35;;
37409;SDS011;23275;48.914;12.566;2023-07-13T00:37:12;12.40;;;6.10;;
37409;SDS011;23275;48.914;12.566;2023-07-13T00:39:37;11.93;;;6.38;;
37409;SDS011;23275;48.914;12.566;2023-07-13T00:42:04;11.82;;;6.82;;
37409;SDS011;23275;48.914;12.566;2023-07-13T00:44:30;8.48;;;6.32;;
37409;SDS011;23275;48.914;12.566;2023-07-13T00:46:56;10.82;;;6.82;;
37409;SDS011;23275;48.914;12.566;2023-07-13T00:49:23;10.77;;;7.28;;
37409;SDS011;23275;48.914;12.566;2023-07-13T00:51:53;10.98;;;7.03;;
37409;SDS011;23275;48.914;12.566;2023-07-13T00:54:26;12.15;;;6.85;;
37409;SDS011;23275;48.914;12.566;2023-07-13T00:56:55;11.70;;;6.28;;
37409;SDS011;23275;48.914;12.566;2023-07-13T00:59:37;12.80;;;6.90;;
37409;SDS011;23275;48.914;12.566;2023-07-13T01:02:06;11.75;;;6.72;;
37409;SDS011;23275;48.914;12.566;2023-07-13T01:04:32;10.00;;;6.15;;
37409;SDS011;23275;48.914;12.566;2023-07-13T01:06:58;9.50;;;5.80;;
37409;SDS011;23275;48.914;12.566;2023-07-13T01:09:25;8.65;;;6.18;;
37409;SDS011;23275;48.914;12.566;2023-07-13T01:11:51;10.35;;;5.90;;
37409;SDS011;23275;48.914;12.566;2023-07-13T01:14:17;11.98;;;6.50;;
37409;SDS011;23275;48.914;12.566;2023-07-13T01:16:43;9.15;;;5.70;;
37409;SDS011;23275;48.914;12.566;2023-07-13T01:19:15;10.15;;;6.05;;
37409;SDS011;23275;48.914;12.566;2023-07-13T01:21:43;9.45;;;6.40;;
37409;SDS011;23275;48.914;12.566;2023-07-13T01:24:15;10.63;;;6.47;;
37409;SDS011;23275;48.914;12.566;2023-07-13T01:26:40;11.70;;;6.15;;
37409;SDS011;23275;48.914;12.566;2023-07-13T01:29:06;12.25;;;6.22;;
37409;SDS011;23275;48.914;12.566;2023-07-13T01:31:32;9.77;;;4.95;;
37409;SDS011;23275;48.914;12.566;2023-07-13T01:33:58;8.60;;;5.18;;
37409;SDS011;23275;48.914;12.566;2023-07-13T01:36:23;10.82;;;5.05;;
37409;SDS011;23275;48.914;12.566;2023-07-13T01:38:49;8.85;;;4.70;;
37409;SDS011;23275;48.914;12.566;2023-07-13T01:41:15;12.88;;;6.45;;
37409;SDS011;23275;48.914;12.566;2023-07-13T01:43:40;9.45;;;5.07;;
37409;SDS011;23275;48.914;12.566;2023-07-13T01:46:06;9.82;;;5.57;;
37409;SDS011;23275;48.914;12.566;2023-07-13T01:48:32;10.73;;;5.55;;
37409;SDS011;23275;48.914;12.566;2023-07-13T01:50:57;7.30;;;4.72;;
37409;SDS011;23275;48.914;12.566;2023-07-13T01:53:23;8.55;;;5.35;;
37409;SDS011;23275;48.914;12.566;2023-07-13T01:55:48;8.52;;;4.82;;
37409;SDS011;23275;48.914;12.566;2023-07-13T01:58:14;11.25;;;4.45;;
37409;SDS011;23275;48.914;12.566;2023-07-13T02:00:39;7.70;;;4.80;;
37409;SDS011;23275;48.914;12.566;2023-07-13T02:03:05;7.47;;;4.70;;
37409;SDS011;23275;48.914;12.566;2023-07-13T02:05:30;10.27;;;4.30;;
37409;SDS011;23275;48.914;12.566;2023-07-13T02:07:56;7.97;;;4.25;;
37409;SDS011;23275;48.914;12.566;2023-07-13T02:10:22;9.43;;;4.30;;
37409;SDS011;23275;48.914;12.566;2023-07-13T02:12:48;9.63;;;4.85;;
37409;SDS011;23275;48.914;12.566;2023-07-13T02:15:15;8.70;;;4.30;;
37409;SDS011;23275;48.914;12.566;2023-07-13T02:17:40;7.13;;;4.15;;
37409;SDS011;23275;48.914;12.566;2023-07-13T02:20:06;7.70;;;4.47;;
37409;SDS011;23275;48.914;12.566;2023-07-13T02:22:32;8.85;;;4.55;;
37409;SDS011;23275;48.914;12.566;2023-07-13T02:24:58;9.43;;;4.47;;
37409;SDS011;23275;48.914;12.566;2023-07-13T02:27:24;8.68;;;4.00;;
37409;SDS011;23275;48.914;12.566;2023-07-13T02:29:50;8.35;;;4.43;;
37409;SDS011;23275;48.914;12.566;2023-07-13T02:32:16;6.88;;;4.50;;
37409;SDS011;23275;48.914;12.566;2023-07-13T02:34:42;8.35;;;4.75;;
37409;SDS011;23275;48.914;12.566;2023-07-13T02:37:08;9.10;;;4.40;;
37409;SDS011;23275;48.914;12.566;2023-07-13T02:39:33;9.75;;;4.25;;
37409;SDS011;23275;48.914;12.566;2023-07-13T02:41:59;7.70;;;4.60;;
37409;SDS011;23275;48.914;12.566;2023-07-13T02:44:25;11.18;;;4.10;;
37409;SDS011;23275;48.914;12.566;2023-07-13T02:46:51;12.85;;;4.40;;
37409;SDS011;23275;48.914;12.566;2023-07-13T02:49:17;10.23;;;4.72;;
37409;SDS011;23275;48.914;12.566;2023-07-13T02:51:42;13.27;;;4.70;;
37409;SDS011;23275;48.914;12.566;2023-07-13T02:54:08;12.82;;;4.80;;
37409;SDS011;23275;48.914;12.566;2023-07-13T02:56:35;11.55;;;4.75;;
37409;SDS011;23275;48.914;12.566;2023-07-13T02:59:00;10.95;;;5.35;;
37409;SDS011;23275;48.914;12.566;2023-07-13T03:01:26;8.77;;;4.07;;
37409;SDS011;23275;48.914;12.566;2023-07-13T03:03:52;10.43;;;4.97;;
37409;SDS011;23275;48.914;12.566;2023-07-13T03:06:18;8.75;;;4.57;;
37409;SDS011;23275;48.914;12.566;2023-07-13T03:08:44;8.43;;;4.00;;
37409;SDS011;23275;48.914;12.566;2023-07-13T03:11:11;12.20;;;4.30;;
37409;SDS011;23275;48.914;12.566;2023-07-13T03:13:40;12.13;;;4.77;;
37409;SDS011;23275;48.914;12.566;2023-07-13T03:16:06;7.20;;;4.18;;
37409;SDS011;23275;48.914;12.566;2023-07-13T03:18:33;10.70;;;4.45;;
37409;SDS011;23275;48.914;12.566;2023-07-13T03:21:00;10.05;;;4.85;;
37409;SDS011;23275;48.914;12.566;2023-07-13T03:23:25;9.25;;;4.30;;
37409;SDS011;23275;48.914;12.566;2023-07-13T03:26:00;14.98;;;4.93;;
37409;SDS011;23275;48.914;12.566;2023-07-13T03:28:27;11.90;;;4.68;;
37409;SDS011;23275;48.914;12.566;2023-07-13T03:33:32;9.10;;;4.05;;
37409;SDS011;23275;48.914;12.566;2023-07-13T03:35:58;12.27;;;4.70;;
37409;SDS011;23275;48.914;12.566;2023-07-13T03:38:24;9.90;;;4.57;;
37409;SDS011;23275;48.914;12.566;2023-07-13T03:40:50;6.80;;;3.78;;
37409;SDS011;23275;48.914;12.566;2023-07-13T03:43:15;10.90;;;4.70;;
37409;SDS011;23275;48.914;12.566;2023-07-13T03:45:41;10.38;;;4.43;;
37409;SDS011;23275;48.914;12.566;2023-07-13T03:48:06;9.15;;;4.43;;
37409;SDS011;23275;48.914;12.566;2023-07-13T03:50:32;10.15;;;4.47;;
37409;SDS011;23275;48.914;12.566;2023-07-13T03:52:57;8.30;;;4.22;;
37409;SDS011;23275;48.914;12.566;2023-07-13T03:55:23;9.00;;;5.05;;
37409;SDS011;23275;48.914;12.566;2023-07-13T03:57:53;11.75;;;4.45;;
37409;SDS011;23275;48.914;12.566;2023-07-13T04:00:23;11.65;;;5.20;;
37409;SDS011;23275;48.914;12.566;2023-07-13T04:02:49;9.75;;;4.65;;
37409;SDS011;23275;48.914;12.566;2023-07-13T04:05:15;6.72;;;3.80;;
37409;SDS011;23275;48.914;12.566;2023-07-13T04:07:40;9.10;;;4.13;;
37409;SDS011;23275;48.914;12.566;2023-07-13T04:10:06;8.70;;;4.45;;
37409;SDS011;23275;48.914;12.566;2023-07-13T04:12:32;7.60;;;4.20;;
37409;SDS011;23275;48.914;12.566;2023-07-13T04:14:57;9.25;;;4.30;;
37409;SDS011;23275;48.914;12.566;2023-07-13T04:17:23;9.60;;;4.40;;
37409;SDS011;23275;48.914;12.566;2023-07-13T04:19:49;13.15;;;5.43;;
37409;SDS011;23275;48.914;12.566;2023-07-13T04:22:14;13.88;;;5.30;;
37409;SDS011;23275;48.914;12.566;2023-07-13T04:24:40;14.18;;;5.60;;
37409;SDS011;23275;48.914;12.566;2023-07-13T04:27:06;11.63;;;5.95;;
37409;SDS011;23275;48.914;12.566;2023-07-13T04:29:31;9.65;;;5.80;;
37409;SDS011;23275;48.914;12.566;2023-07-13T04:31:57;11.57;;;5.78;;
37409;SDS011;23275;48.914;12.566;2023-07-13T04:34:23;11.85;;;6.47;;
37409;SDS011;23275;48.914;12.566;2023-07-13T04:36:49;9.55;;;6.32;;
37409;SDS011;23275;48.914;12.566;2023-07-13T04:39:15;11.00;;;6.82;;
37409;SDS011;23275;48.914;12.566;2023-07-13T04:41:41;13.10;;;7.28;;
37409;SDS011;23275;48.914;12.566;2023-07-13T04:44:06;12.35;;;7.60;;
37409;SDS011;23275;48.914;12.566;2023-07-13T04:46:32;15.05;;;8.07;;
37409;SDS011;23275;48.914;12.566;2023-07-13T04:48:57;8.63;;;7.15;;
37409;SDS011;23275;48.914;12.566;2023-07-13T04:51:23;17.20;;;8.88;;
37409;SDS011;23275;48.914;12.566;2023-07-13T04:53:49;13.68;;;8.68;;
37409;SDS011;23275;48.914;12.566;2023-07-13T04:56:15;14.70;;;9.20;;
37409;SDS011;23275;48.914;12.566;2023-07-13T04:58:41;10.75;;;8.45;;
37409;SDS011;23275;48.914;12.566;2023-07-13T05:01:06;17.42;;;9.00;;
37409;SDS011;23275;48.914;12.566;2023-07-13T05:03:33;15.00;;;8.65;;
37409;SDS011;23275;48.914;12.566;2023-07-13T05:06:06;17.35;;;10.00;;
37409;SDS011;23275;48.914;12.566;2023-07-13T05:08:35;12.68;;;9.68;;
37409;SDS011;23275;48.914;12.566;2023-07-13T05:11:01;15.02;;;9.30;;
37409;SDS011;23275;48.914;12.566;2023-07-13T05:13:28;14.73;;;10.13;;
37409;SDS011;23275;48.914;12.566;2023-07-13T05:15:55;12.07;;;10.05;;
37409;SDS011;23275;48.914;12.566;2023-07-13T05:18:24;15.98;;;9.63;;
37409;SDS011;23275;48.914;12.566;2023-07-13T05:21:24;18.45;;;10.27;;
37409;SDS011;23275;48.914;12.566;2023-07-13T05:23:42;17.55;;;10.98;;
37409;SDS011;23275;48.914;12.566;2023-07-13T05:26:08;17.25;;;10.07;;
37409;SDS011;23275;48.914;12.566;2023-07-13T05:28:33;19.48;;;11.00;;
37409;SDS011;23275;48.914;12.566;2023-07-13T05:30:59;13.80;;;10.80;;
37409;SDS011;23275;48.914;12.566;2023-07-13T05:33:25;15.05;;;10.85;;
37409;SDS011;23275;48.914;12.566;2023-07-13T05:35:51;16.08;;;11.18;;
37409;SDS011;23275;48.914;12.566;2023-07-13T05:38:17;17.40;;;11.20;;
37409;SDS011;23275;48.914;12.566;2023-07-13T05:40:46;18.75;;;11.75;;
37409;SDS011;23275;48.914;12.566;2023-07-13T05:43:12;22.27;;;12.40;;
37409;SDS011;23275;48.914;12.566;2023-07-13T05:45:38;19.08;;;11.63;;
37409;SDS011;23275;48.914;12.566;2023-07-13T05:48:04;17.40;;;10.75;;
37409;SDS011;23275;48.914;12.566;2023-07-13T05:50:29;16.27;;;10.95;;
37409;SDS011;23275;48.914;12.566;2023-07-13T05:52:55;15.75;;;10.13;;
37409;SDS011;23275;48.914;12.566;2023-07-13T05:55:21;17.67;;;10.50;;
37409;SDS011;23275;48.914;12.566;2023-07-13T05:57:47;14.60;;;10.20;;
37409;SDS011;23275;48.914;12.566;2023-07-13T06:00:13;15.43;;;9.63;;
37409;SDS011;23275;48.914;12.566;2023-07-13T06:02:39;14.43;;;9.27;;
37409;SDS011;23275;48.914;12.566;2023-07-13T06:05:04;11.02;;;8.95;;
37409;SDS011;23275;48.914;12.566;2023-07-13T06:07:30;14.35;;;9.48;;
37409;SDS011;23275;48.914;12.566;2023-07-13T06:09:56;14.48;;;8.25;;
37409;SDS011;23275;48.914;12.566;2023-07-13T06:12:21;10.48;;;8.20;;
37409;SDS011;23275;48.914;12.566;2023-07-13T06:14:47;11.70;;;8.13;;
37409;SDS011;23275;48.914;12.566;2023-07-13T06:17:12;14.63;;;8.75;;
37409;SDS011;23275;48.914;12.566;2023-07-13T06:19:38;10.35;;;6.70;;
37409;SDS011;23275;48.914;12.566;2023-07-13T06:22:04;10.20;;;6.53;;
37409;SDS011;23275;48.914;12.566;2023-07-13T06:24:29;13.07;;;6.45;;
37409;SDS011;23275;48.914;12.566;2023-07-13T06:26:55;10.95;;;6.32;;
37409;SDS011;23275;48.914;12.566;2023-07-13T06:29:21;12.25;;;6.53;;
37409;SDS011;23275;48.914;12.566;2023-07-13T06:31:47;8.07;;;5.80;;
37409;SDS011;23275;48.914;12.566;2023-07-13T06:34:12;13.82;;;6.35;;
37409;SDS011;23275;48.914;12.566;2023-07-13T06:36:38;11.45;;;5.35;;
37409;SDS011;23275;48.914;12.566;2023-07-13T06:39:04;10.35;;;5.32;;
37409;SDS011;23275;48.914;12.566;2023-07-13T06:41:31;11.57;;;5.10;;
37409;SDS011;23275;48.914;12.566;2023-07-13T06:43:58;9.13;;;4.30;;
37409;SDS011;23275;48.914;12.566;2023-07-13T06:46:24;8.63;;;4.10;;
37409;SDS011;23275;48.914;12.566;2023-07-13T06:48:50;11.25;;;4.40;;
37409;SDS011;23275;48.914;12.566;2023-07-13T06:51:16;8.13;;;3.83;;
37409;SDS011;23275;48.914;12.566;2023-07-13T06:53:41;8.35;;;4.07;;
37409;SDS011;23275;48.914;12.566;2023-07-13T06:56:08;11.98;;;3.30;;
37409;SDS011;23275;48.914;12.566;2023-07-13T06:58:35;7.93;;;3.75;;
37409;SDS011;23275;48.914;12.566;2023-07-13T07:01:01;7.65;;;3.92;;
37409;SDS011;23275;48.914;12.566;2023-07-13T07:03:28;6.30;;;3.50;;
37409;SDS011;23275;48.914;12.566;2023-07-13T07:05:53;7.35;;;3.28;;
37409;SDS011;23275;48.914;12.566;2023-07-13T07:08:24;7.07;;;3.70;;
37409;SDS011;23275;48.914;12.566;2023-07-13T07:10:50;10.95;;;4.03;;
37409;SDS011;23275;48.914;12.566;2023-07-13T07:13:18;7.00;;;3.60;;
37409;SDS011;23275;48.914;12.566;2023-07-13T07:15:44;10.57;;;3.08;;
37409;SDS011;23275;48.914;12.566;2023-07-13T07:18:10;7.20;;;3.30;;
37409;SDS011;23275;48.914;12.566;2023-07-13T07:20:35;9.75;;;3.03;;
37409;SDS011;23275;48.914;12.566;2023-07-13T07:23:01;9.05;;;2.45;;
37409;SDS011;23275;48.914;12.566;2023-07-13T07:25:27;6.28;;;3.13;;
37409;SDS011;23275;48.914;12.566;2023-07-13T07:27:57;5.95;;;2.70;;
37409;SDS011;23275;48.914;12.566;2023-07-13T07:30:24;8.30;;;2.55;;
37409;SDS011;23275;48.914;12.566;2023-07-13T07:33:05;8.65;;;2.63;;
37409;SDS011;23275;48.914;12.566;2023-07-13T07:35:34;6.50;;;2.20;;
37409;SDS011;23275;48.914;12.566;2023-07-13T07:37:59;7.22;;;2.45;;
37409;SDS011;23275;48.914;12.566;2023-07-13T07:40:26;4.68;;;1.90;;
37409;SDS011;23275;48.914;12.566;2023-07-13T07:42:51;8.85;;;2.40;;
37409;SDS011;23275;48.914;12.566;2023-07-13T07:45:18;6.38;;;2.00;;
37409;SDS011;23275;48.914;12.566;2023-07-13T07:47:44;7.95;;;3.38;;
37409;SDS011;23275;48.914;12.566;2023-07-13T07:50:09;8.82;;;2.22;;
37409;SDS011;23275;48.914;12.566;2023-07-13T07:52:35;5.50;;;1.90;;
37409;SDS011;23275;48.914;12.566;2023-07-13T07:55:01;4.82;;;1.77;;
37409;SDS011;23275;48.914;12.566;2023-07-13T07:57:26;5.90;;;1.50;;
37409;SDS011;23275;48.914;12.566;2023-07-13T07:59:52;4.28;;;1.50;;
37409;SDS011;23275;48.914;12.566;2023-07-13T08:02:18;4.38;;;1.40;;
37409;SDS011;23275;48.914;12.566;2023-07-13T08:04:43;4.43;;;1.80;;
37409;SDS011;23275;48.914;12.566;2023-07-13T08:07:09;5.30;;;1.67;;
37409;SDS011;23275;48.914;12.566;2023-07-13T08:09:34;3.13;;;1.20;;
37409;SDS011;23275;48.914;12.566;2023-07-13T08:12:00;3.03;;;1.20;;
37409;SDS011;23275;48.914;12.566;2023-07-13T08:14:26;3.80;;;1.20;;
37409;SDS011;23275;48.914;12.566;2023-07-13T08:16:51;2.90;;;1.20;;
37409;SDS011;23275;48.914;12.566;2023-07-13T08:19:17;4.03;;;1.10;;
37409;SDS011;23275;48.914;12.566;2023-07-13T08:21:42;5.63;;;1.42;;
37409;SDS011;23275;48.914;12.566;2023-07-13T08:24:08;4.63;;;1.00;;
37409;SDS011;23275;48.914;12.566;2023-07-13T08:26:34;4.13;;;1.15;;
37409;SDS011;23275;48.914;12.566;2023-07-13T08:29:00;8.27;;;1.55;;
37409;SDS011;23275;48.914;12.566;2023-07-13T08:31:26;5.13;;;1.40;;
37409;SDS011;23275;48.914;12.566;2023-07-13T08:33:51;4.85;;;1.55;;
37409;SDS011;23275;48.914;12.566;2023-07-13T08:36:17;4.28;;;0.80;;
37409;SDS011;23275;48.914;12.566;2023-07-13T08:38:43;5.60;;;1.05;;
37409;SDS011;23275;48.914;12.566;2023-07-13T08:41:15;2.45;;;0.95;;
37409;SDS011;23275;48.914;12.566;2023-07-13T08:43:45;3.88;;;0.90;;
37409;SDS011;23275;48.914;12.566;2023-07-13T08:46:28;4.22;;;1.30;;
37409;SDS011;23275;48.914;12.566;2023-07-13T08:49:01;3.88;;;1.10;;
37409;SDS011;23275;48.914;12.566;2023-07-13T08:51:31;3.10;;;0.82;;
37409;SDS011;23275;48.914;12.566;2023-07-13T08:54:16;3.20;;;0.70;;
37409;SDS011;23275;48.914;12.566;2023-07-13T08:56:47;3.05;;;0.80;;
37409;SDS011;23275;48.914;12.566;2023-07-13T08:59:18;2.75;;;0.88;;
37409;SDS011;23275;48.914;12.566;2023-07-13T09:01:56;5.88;;;0.93;;
37409;SDS011;23275;48.914;12.566;2023-07-13T09:04:25;1.52;;;0.68;;
37409;SDS011;23275;48.914;12.566;2023-07-13T09:09:37;4.18;;;0.90;;
37409;SDS011;23275;48.914;12.566;2023-07-13T09:12:14;4.75;;;0.77;;
37409;SDS011;23275;48.914;12.566;2023-07-13T09:14:49;6.32;;;1.15;;
37409;SDS011;23275;48.914;12.566;2023-07-13T09:17:19;4.38;;;0.90;;
37409;SDS011;23275;48.914;12.566;2023-07-13T09:19:53;2.67;;;0.98;;
37409;SDS011;23275;48.914;12.566;2023-07-13T09:22:29;3.70;;;0.80;;
37409;SDS011;23275;48.914;12.566;2023-07-13T09:25:06;3.15;;;0.90;;
37409;SDS011;23275;48.914;12.566;2023-07-13T09:27:38;5.30;;;1.48;;
37409;SDS011;23275;48.914;12.566;2023-07-13T09:30:18;4.50;;;0.88;;
37409;SDS011;23275;48.914;12.566;2023-07-13T09:32:51;4.85;;;0.98;;
37409;SDS011;23275;48.914;12.566;2023-07-13T09:35:25;3.97;;;1.08;;
37409;SDS011;23275;48.914;12.566;2023-07-13T09:37:56;3.65;;;0.90;;
37409;SDS011;23275;48.914;12.566;2023-07-13T09:40:44;3.55;;;1.02;;
37409;SDS011;23275;48.914;12.566;2023-07-13T09:43:15;3.25;;;0.77;;
37409;SDS011;23275;48.914;12.566;2023-07-13T09:45:45;5.90;;;0.82;;
37409;SDS011;23275;48.914;12.566;2023-07-13T09:48:13;4.60;;;0.70;;
37409;SDS011;23275;48.914;12.566;2023-07-13T09:50:40;2.55;;;0.90;;
37409;SDS011;23275;48.914;12.566;2023-07-13T09:53:11;3.53;;;0.90;;
37409;SDS011;23275;48.914;12.566;2023-07-13T09:55:38;3.20;;;1.00;;
37409;SDS011;23275;48.914;12.566;2023-07-13T09:58:16;2.67;;;0.98;;
37409;SDS011;23275;48.914;12.566;2023-07-13T10:01:00;6.38;;;0.90;;
37409;SDS011;23275;48.914;12.566;2023-07-13T10:03:30;2.40;;;0.70;;
37409;SDS011;23275;48.914;12.566;2023-07-13T10:06:12;8.27;;;1.13;;
37409;SDS011;23275;48.914;12.566;2023-07-13T10:08:40;3.08;;;0.80;;
37409;SDS011;23275;48.914;12.566;2023-07-13T10:11:26;2.03;;;0.70;;
37409;SDS011;23275;48.914;12.566;2023-07-13T10:13:59;4.78;;;0.70;;
37409;SDS011;23275;48.914;12.566;2023-07-13T10:16:31;3.33;;;0.70;;
37409;SDS011;23275;48.914;12.566;2023-07-13T10:18:59;5.25;;;1.33;;
37409;SDS011;23275;48.914;12.566;2023-07-13T10:21:36;3.10;;;0.80;;
37409;SDS011;23275;48.914;12.566;2023-07-13T10:30:02;4.90;;;0.70;;
37409;SDS011;23275;48.914;12.566;2023-07-13T10:32:34;4.32;;;0.77;;
37409;SDS011;23275;48.914;12.566;2023-07-13T10:35:01;4.15;;;0.60;;
37409;SDS011;23275;48.914;12.566;2023-07-13T10:37:31;4.05;;;0.70;;
37409;SDS011;23275;48.914;12.566;2023-07-13T10:40:23;2.00;;;0.70;;
37409;SDS011;23275;48.914;12.566;2023-07-13T10:42:54;2.60;;;0.70;;
37409;SDS011;23275;48.914;12.566;2023-07-13T10:45:24;2.92;;;0.70;;
37409;SDS011;23275;48.914;12.566;2023-07-13T10:47:52;2.33;;;0.60;;
37409;SDS011;23275;48.914;12.566;2023-07-13T10:50:24;2.00;;;0.63;;
37409;SDS011;23275;48.914;12.566;2023-07-13T10:52:53;2.20;;;1.00;;
37409;SDS011;23275;48.914;12.566;2023-07-13T10:58:01;3.63;;;0.90;;
37409;SDS011;23275;48.914;12.566;2023-07-13T11:00:42;3.58;;;0.80;;
37409;SDS011;23275;48.914;12.566;2023-07-13T11:03:13;3.22;;;0.80;;
37409;SDS011;23275;48.914;12.566;2023-07-13T11:05:41;3.47;;;1.38;;
37409;SDS011;23275;48.914;12.566;2023-07-13T11:08:20;3.15;;;1.08;;
37409;SDS011;23275;48.914;12.566;2023-07-13T11:10:57;1.50;;;0.50;;
37409;SDS011;23275;48.914;12.566;2023-07-13T11:21:16;3.22;;;1.00;;
37409;SDS011;23275;48.914;12.566;2023-07-13T11:24:15;2.08;;;0.70;;
37409;SDS011;23275;48.914;12.566;2023-07-13T11:26:39;4.30;;;0.60;;
37409;SDS011;23275;48.914;12.566;2023-07-13T11:32:29;2.25;;;0.60;;
37409;SDS011;23275;48.914;12.566;2023-07-13T11:34:56;3.47;;;0.85;;
37409;SDS011;23275;48.914;12.566;2023-07-13T11:37:23;1.73;;;0.70;;
37409;SDS011;23275;48.914;12.566;2023-07-13T11:39:49;2.08;;;0.93;;
37409;SDS011;23275;48.914;12.566;2023-07-13T11:42:17;2.72;;;0.80;;
37409;SDS011;23275;48.914;12.566;2023-07-13T11:44:46;1.73;;;0.70;;
37409;SDS011;23275;48.914;12.566;2023-07-13T11:47:17;2.08;;;0.80;;
37409;SDS011;23275;48.914;12.566;2023-07-13T11:49:54;5.65;;;1.27;;
37409;SDS011;23275;48.914;12.566;2023-07-13T11:52:35;5.13;;;0.65;;
37409;SDS011;23275;48.914;12.566;2023-07-13T11:55:03;3.20;;;0.63;;
37409;SDS011;23275;48.914;12.566;2023-07-13T11:57:39;3.08;;;0.90;;
37409;SDS011;23275;48.914;12.566;2023-07-13T12:00:11;4.78;;;0.70;;
37409;SDS011;23275;48.914;12.566;2023-07-13T12:02:43;4.35;;;1.00;;
37409;SDS011;23275;48.914;12.566;2023-07-13T12:05:13;2.92;;;0.70;;
37409;SDS011;23275;48.914;12.566;2023-07-13T12:07:40;3.70;;;0.82;;
37409;SDS011;23275;48.914;12.566;2023-07-13T12:10:17;3.22;;;0.75;;
37409;SDS011;23275;48.914;12.566;2023-07-13T12:12:53;1.83;;;0.70;;
37409;SDS011;23275;48.914;12.566;2023-07-13T12:15:19;6.25;;;0.88;;
37409;SDS011;23275;48.914;12.566;2023-07-13T12:17:47;4.68;;;0.77;;
37409;SDS011;23275;48.914;12.566;2023-07-13T12:20:20;1.98;;;0.80;;
37409;SDS011;23275;48.914;12.566;2023-07-13T12:22:49;2.67;;;0.90;;
37409;SDS011;23275;48.914;12.566;2023-07-13T12:25:16;2.83;;;1.00;;
37409;SDS011;23275;48.914;12.566;2023-07-13T12:27:42;1.65;;;0.70;;
37409;SDS011;23275;48.914;12.566;2023-07-13T12:30:25;3.13;;;0.90;;
37409;SDS011;23275;48.914;12.566;2023-07-13T12:32:57;4.25;;;0.80;;
37409;SDS011;23275;48.914;12.566;2023-07-13T12:35:38;3.45;;;1.00;;
37409;SDS011;23275;48.914;12.566;2023-07-13T12:38:17;3.90;;;0.95;;
37409;SDS011;23275;48.914;12.566;2023-07-13T12:40:46;1.98;;;0.60;;
37409;SDS011;23275;48.914;12.566;2023-07-13T12:43:15;3.53;;;0.60;;
37409;SDS011;23275;48.914;12.566;2023-07-13T12:45:57;2.55;;;0.70;;
37409;SDS011;23275;48.914;12.566;2023-07-13T12:48:26;2.42;;;0.80;;
37409;SDS011;23275;48.914;12.566;2023-07-13T12:50:53;2.95;;;0.75;;
37409;SDS011;23275;48.914;12.566;2023-07-13T12:53:22;4.28;;;0.98;;
37409;SDS011;23275;48.914;12.566;2023-07-13T12:55:53;2.55;;;0.70;;
37409;SDS011;23275;48.914;12.566;2023-07-13T12:58:28;3.65;;;1.00;;
37409;SDS011;23275;48.914;12.566;2023-07-13T13:00:57;4.63;;;0.70;;
37409;SDS011;23275;48.914;12.566;2023-07-13T13:03:30;2.50;;;0.80;;
37409;SDS011;23275;48.914;12.566;2023-07-13T13:05:59;4.07;;;1.00;;
37409;SDS011;23275;48.914;12.566;2023-07-13T13:08:31;2.65;;;0.70;;
37409;SDS011;23275;48.914;12.566;2023-07-13T13:13:26;1.92;;;0.65;;
37409;SDS011;23275;48.914;12.566;2023-07-13T13:15:51;4.07;;;1.00;;
37409;SDS011;23275;48.914;12.566;2023-07-13T13:18:18;3.28;;;0.60;;
37409;SDS011;23275;48.914;12.566;2023-07-13T13:20:46;5.20;;;0.90;;
37409;SDS011;23275;48.914;12.566;2023-07-13T13:23:13;3.08;;;0.90;;
37409;SDS011;23275;48.914;12.566;2023-07-13T13:25:47;2.97;;;0.80;;
37409;SDS011;23275;48.914;12.566;2023-07-13T13:28:19;3.63;;;0.75;;
37409;SDS011;23275;48.914;12.566;2023-07-13T13:30:46;3.20;;;0.77;;
37409;SDS011;23275;48.914;12.566;2023-07-13T13:33:14;2.95;;;1.27;;
37409;SDS011;23275;48.914;12.566;2023-07-13T13:35:42;7.85;;;1.75;;
37409;SDS011;23275;48.914;12.566;2023-07-13T13:38:15;2.00;;;0.80;;
37409;SDS011;23275;48.914;12.566;2023-07-13T13:40:44;2.10;;;0.80;;
37409;SDS011;23275;48.914;12.566;2023-07-13T13:43:14;3.67;;;0.88;;
37409;SDS011;23275;48.914;12.566;2023-07-13T13:45:43;1.67;;;0.70;;
37409;SDS011;23275;48.914;12.566;2023-07-13T13:48:14;4.78;;;0.82;;
37409;SDS011;23275;48.914;12.566;2023-07-13T13:50:55;3.58;;;0.90;;
37409;SDS011;23275;48.914;12.566;2023-07-13T13:53:21;2.13;;;0.65;;
37409;SDS011;23275;48.914;12.566;2023-07-13T13:55:48;4.00;;;1.45;;
37409;SDS011;23275;48.914;12.566;2023-07-13T13:58:14;5.30;;;0.73;;
37409;SDS011;23275;48.914;12.566;2023-07-13T14:00:40;1.92;;;0.70;;
37409;SDS011;23275;48.914;12.566;2023-07-13T14:03:08;2.45;;;0.80;;
37409;SDS011;23275;48.914;12.566;2023-07-13T14:05:40;2.72;;;0.75;;
37409;SDS011;23275;48.914;12.566;2023-07-13T14:08:09;3.83;;;0.75;;
37409;SDS011;23275;48.914;12.566;2023-07-13T14:10:39;3.65;;;0.80;;
37409;SDS011;23275;48.914;12.566;2023-07-13T14:13:07;4.43;;;0.77;;
37409;SDS011;23275;48.914;12.566;2023-07-13T14:15:46;3.00;;;0.80;;
37409;SDS011;23275;48.914;12.566;2023-07-13T14:18:12;3.45;;;0.70;;
37409;SDS011;23275;48.914;12.566;2023-07-13T14:20:43;7.13;;;0.82;;
37409;SDS011;23275;48.914;12.566;2023-07-13T14:23:10;4.95;;;0.80;;
37409;SDS011;23275;48.914;12.566;2023-07-13T14:25:36;3.40;;;0.82;;
37409;SDS011;23275;48.914;12.566;2023-07-13T14:28:15;2.05;;;0.90;;
37409;SDS011;23275;48.914;12.566;2023-07-13T14:30:48;2.72;;;0.90;;
37409;SDS011;23275;48.914;12.566;2023-07-13T14:33:15;5.60;;;0.93;;
37409;SDS011;23275;48.914;12.566;2023-07-13T14:35:41;4.43;;;0.77;;
37409;SDS011;23275;48.914;12.566;2023-07-13T14:38:09;4.57;;;0.68;;
37409;SDS011;23275;48.914;12.566;2023-07-13T14:40:38;4.18;;;0.80;;
37409;SDS011;23275;48.914;12.566;2023-07-13T14:43:03;3.97;;;0.73;;
37409;SDS011;23275;48.914;12.566;2023-07-13T14:45:29;2.33;;;0.70;;
37409;SDS011;23275;48.914;12.566;2023-07-13T14:47:56;1.75;;;1.00;;
37409;SDS011;23275;48.914;12.566;2023-07-13T14:50:27;2.00;;;0.70;;
37409;SDS011;23275;48.914;12.566;2023-07-13T14:52:56;4.85;;;0.95;;
37409;SDS011;23275;48.914;12.566;2023-07-13T14:55:22;3.78;;;0.70;;
37409;SDS011;23275;48.914;12.566;2023-07-13T14:57:51;2.17;;;0.73;;
37409;SDS011;23275;48.914;12.566;2023-07-13T15:00:20;5.95;;;0.70;;
37409;SDS011;23275;48.914;12.566;2023-07-13T15:02:48;3.38;;;0.98;;
37409;SDS011;23275;48.914;12.566;2023-07-13T15:05:21;2.33;;;0.70;;